Time;durP1;ratioP1;P1;durP2;ratioP2;P2;SDS_P1;SDS_P2;PMS_P1;PMS_P2;Temp;Humidity;BMP_temperature;BMP_pressure;BME280_temperature;BME280_humidity;BME280_pressure;Samples;Min_cycle;Max_cycle;Signal;HPM_P1;HPM_P2
2021/10/24 00:00:49;;;;;;;19.83;5.30;;;;;;;4.99;100.00;102563.19;5126433;27;20441;-79
2021/10/24 00:03:14;;;;;;;14.03;5.50;;;;;;;5.05;100.00;102563.69;5109255;28;20187;-80
2021/10/24 00:05:40;;;;;;;14.10;5.50;;;;;;;5.06;100.00;102570.72;5110175;28;20054;-79
2021/10/24 00:08:05;;;;;;;17.30;6.47;;;;;;;5.09;100.00;102564.38;5109387;28;20060;-80
2021/10/24 00:10:31;;;;;;;16.15;5.63;;;;;;;5.21;100.00;102576.13;5109255;28;20107;-80
2021/10/24 00:12:57;;;;;;;17.75;6.25;;;;;;;5.28;100.00;102564.25;5110091;28;20441;-80
2021/10/24 00:15:23;;;;;;;14.45;5.60;;;;;;;5.38;100.00;102572.53;5126061;27;20047;-79
2021/10/24 00:17:48;;;;;;;14.43;5.45;;;;;;;5.34;100.00;102571.88;5126310;27;20032;-80
2021/10/24 00:20:14;;;;;;;14.63;4.83;;;;;;;5.25;100.00;102569.72;5109354;28;20507;-79
2021/10/24 00:22:40;;;;;;;18.23;5.70;;;;;;;5.04;100.00;102554.03;5108964;28;20345;-80
2021/10/24 00:25:06;;;;;;;15.80;5.60;;;;;;;5.12;100.00;102566.00;5108552;28;20385;-80
2021/10/24 00:27:31;;;;;;;14.20;5.68;;;;;;;5.13;100.00;102575.66;5143262;27;20108;-79
2021/10/24 00:29:57;;;;;;;15.88;4.95;;;;;;;5.01;100.00;102563.94;5108882;28;20492;-79
2021/10/24 00:32:23;;;;;;;17.42;6.72;;;;;;;4.92;100.00;102564.44;5108914;28;20114;-80
2021/10/24 00:34:48;;;;;;;12.87;4.93;;;;;;;4.82;100.00;102550.81;5108690;28;20095;-80
2021/10/24 00:37:13;;;;;;;12.53;5.27;;;;;;;4.86;100.00;102565.59;5108766;28;20527;-79
2021/10/24 00:39:39;;;;;;;18.60;8.10;;;;;;;4.84;100.00;102562.19;5108576;28;20475;-80
2021/10/24 00:42:04;;;;;;;14.10;6.80;;;;;;;4.92;100.00;102567.94;5109390;28;20094;-80
2021/10/24 00:44:32;;;;;;;15.85;6.13;;;;;;;5.03;100.00;102568.22;5144224;27;20064;-79
2021/10/24 00:47:03;;;;;;;18.73;7.13;;;;;;;5.13;100.00;102573.00;5110372;28;20111;-79
2021/10/24 00:49:29;;;;;;;16.17;5.72;;;;;;;5.04;100.00;102567.28;5126752;27;20036;-79
2021/10/24 00:51:55;;;;;;;10.43;6.38;;;;;;;4.99;100.00;102576.41;5110561;28;20045;-80
2021/10/24 00:54:23;;;;;;;14.40;5.82;;;;;;;4.79;100.00;102558.94;5108609;28;20092;-80
2021/10/24 00:56:51;;;;;;;15.27;5.53;;;;;;;4.77;100.00;102555.50;5143495;27;20063;-79
2021/10/24 00:59:17;;;;;;;17.08;5.70;;;;;;;4.83;100.00;102557.84;5109092;28;20452;-79
2021/10/24 01:01:43;;;;;;;14.23;5.75;;;;;;;4.67;100.00;102531.31;5143353;27;20042;-80
2021/10/24 01:04:09;;;;;;;16.20;7.15;;;;;;;4.80;100.00;102556.22;5125715;27;20054;-79
2021/10/24 01:06:36;;;;;;;15.77;6.40;;;;;;;4.76;100.00;102549.38;5108755;28;20128;-79
2021/10/24 01:09:05;;;;;;;18.60;6.60;;;;;;;4.78;100.00;102550.13;5143096;27;20055;-79
2021/10/24 01:11:30;;;;;;;11.52;6.53;;;;;;;4.76;100.00;102543.22;5109349;28;20346;-79
2021/10/24 01:13:57;;;;;;;12.40;5.53;;;;;;;4.83;100.00;102542.81;5091280;28;20053;-80
2021/10/24 01:16:23;;;;;;;16.33;6.78;;;;;;;4.82;100.00;102533.16;5142964;27;20043;-80
2021/10/24 01:18:48;;;;;;;17.73;6.85;;;;;;;4.72;100.00;102510.75;5142774;27;20026;-79
2021/10/24 01:21:14;;;;;;;13.82;6.15;;;;;;;4.78;100.00;102509.59;5108354;28;20043;-79
2021/10/24 01:23:40;;;;;;;19.55;6.78;;;;;;;4.77;100.00;102502.56;5107890;28;20028;-79
2021/10/24 01:26:07;;;;;;;14.07;5.63;;;;;;;4.82;100.00;102506.72;5125093;27;20048;-79
2021/10/24 01:28:33;;;;;;;;;;;;;;;4.84;100.00;102504.81;5125390;27;20080;-79
2021/10/24 01:31:00;;;;;;;18.02;6.07;;;;;;;4.78;100.00;102486.63;5125178;27;19915;-79
2021/10/24 01:33:28;;;;;;;19.52;5.85;;;;;;;4.67;100.00;102475.75;5107540;28;20020;-79
2021/10/24 01:36:03;;;;;;;12.18;5.22;;;;;;;4.80;100.00;102486.53;5142017;27;20035;-79
2021/10/24 01:38:29;;;;;;;12.75;5.65;;;;;;;4.68;100.00;102484.53;5142196;27;20063;-79
2021/10/24 01:40:56;;;;;;;12.88;5.68;;;;;;;4.62;100.00;102475.16;5109481;28;20096;-79
2021/10/24 01:43:24;;;;;;;12.05;5.25;;;;;;;4.50;100.00;102473.16;5126065;27;20027;-79
2021/10/24 01:45:51;;;;;;;12.75;5.13;;;;;;;4.37;100.00;102470.28;5108834;28;20032;-79
2021/10/24 01:48:21;;;;;;;18.85;5.57;;;;;;;4.29;100.00;102472.50;5125825;27;20031;-78
2021/10/24 01:50:47;;;;;;;13.60;4.80;;;;;;;4.23;100.00;102473.66;5126093;27;20024;-79
2021/10/24 01:53:19;;;;;;;16.77;5.70;;;;;;;4.21;100.00;102476.41;5108910;28;20035;-79
2021/10/24 01:55:46;;;;;;;26.55;6.55;;;;;;;4.12;100.00;102468.94;5142910;27;20062;-79
2021/10/24 01:58:12;;;;;;;18.42;8.13;;;;;;;4.28;100.00;102484.00;5109004;28;20098;-79
2021/10/24 02:00:38;;;;;;;13.07;6.43;;;;;;;4.22;100.00;102480.72;5092199;28;20026;-79
2021/10/24 02:03:04;;;;;;;15.77;7.50;;;;;;;4.23;100.00;102484.22;5108854;28;20108;-78
2021/10/24 02:05:51;;;;;;;;;;;;;;;4.36;100.00;102502.97;5109111;28;20061;-79
2021/10/24 02:08:17;;;;;;;13.35;6.57;;;;;;;4.34;100.00;102503.03;5108446;28;19911;-79
2021/10/24 02:10:43;;;;;;;18.00;7.63;;;;;;;4.30;100.00;102492.69;5125580;27;20084;-79
2021/10/24 02:13:11;;;;;;;19.60;7.95;;;;;;;4.35;100.00;102494.16;5142489;27;20031;-78
2021/10/24 02:15:36;;;;;;;23.75;9.05;;;;;;;4.47;100.00;102505.88;5142687;27;20057;-79
2021/10/24 02:18:04;;;;;;;20.70;10.27;;;;;;;4.57;100.00;102517.72;5125399;27;20042;-78
2021/10/24 02:20:35;;;;;;;22.77;9.27;;;;;;;4.70;100.00;102517.91;5108339;28;20130;-78
2021/10/24 02:23:01;;;;;;;;;;;;;;;4.73;100.00;102511.59;5143165;27;20027;-78
2021/10/24 02:25:28;;;;;;;24.00;10.43;;;;;;;4.77;100.00;102507.88;5091395;28;19914;-78
2021/10/24 02:27:54;;;;;;;19.27;9.48;;;;;;;4.78;100.00;102507.81;5108351;28;20146;-78
2021/10/24 02:30:21;;;;;;;20.40;8.68;;;;;;;4.83;100.00;102503.09;5125313;27;20110;-77
2021/10/24 02:32:47;;;;;;;17.45;9.05;;;;;;;4.87;100.00;102498.53;5108247;28;20036;-78
2021/10/24 02:35:31;;;;;;;30.52;10.25;;;;;;;4.91;100.00;102494.75;5108212;28;20119;-77
2021/10/24 02:37:58;;;;;;;19.30;8.95;;;;;;;4.92;100.00;102480.59;5108388;28;20532;-77
2021/10/24 02:40:24;;;;;;;22.85;8.70;;;;;;;5.03;100.00;102483.50;5108013;28;20143;-78
2021/10/24 02:42:52;;;;;;;25.10;8.70;;;;;;;5.10;100.00;102477.88;5091506;28;20036;-78
2021/10/24 02:45:27;;;;;;;27.85;9.18;;;;;;;5.12;100.00;102468.03;5142210;27;20411;-77
2021/10/24 02:47:52;;;;;;;19.85;9.35;;;;;;;5.18;100.00;102462.44;5107979;28;20039;-79
2021/10/24 02:50:18;;;;;;;15.90;7.13;;;;;;;5.16;100.00;102453.72;5107799;28;20024;-78
2021/10/24 02:52:44;;;;;;;16.73;6.80;;;;;;;5.18;100.00;102450.03;5107971;28;20043;-78
2021/10/24 02:55:10;;;;;;;24.23;8.45;;;;;;;5.25;100.00;102447.91;5141968;27;20027;-77
2021/10/24 02:57:36;;;;;;;16.30;6.82;;;;;;;5.27;100.00;102441.56;5109901;28;20057;-78
2021/10/24 03:00:07;;;;;;;23.90;7.90;;;;;;;5.23;100.00;102428.59;5128984;27;20036;-78
2021/10/24 03:02:34;;;;;;;15.65;7.95;;;;;;;5.37;100.00;102427.81;5129037;27;20111;-78
2021/10/24 03:04:59;;;;;;;15.48;6.53;;;;;;;5.34;100.00;102422.66;5146437;27;20452;-78
2021/10/24 03:07:25;;;;;;;13.93;6.93;;;;;;;5.48;100.00;102430.69;5111963;28;20036;-78
2021/10/24 03:09:51;;;;;;;13.07;5.82;;;;;;;5.48;100.00;102428.06;5111873;28;20118;-78
2021/10/24 03:12:16;;;;;;;18.63;6.00;;;;;;;5.50;100.00;102418.19;5111731;28;20126;-78
2021/10/24 03:14:42;;;;;;;13.00;5.60;;;;;;;5.57;100.00;102418.69;5094354;28;20093;-78
2021/10/24 03:17:09;;;;;;;16.75;5.63;;;;;;;5.56;100.00;102422.31;5111503;28;20039;-78
2021/10/24 03:19:39;;;;;;;15.52;5.18;;;;;;;5.60;100.00;102418.53;5095181;28;20086;-78
2021/10/24 03:22:04;;;;;;;18.65;5.63;;;;;;;5.62;100.00;102417.50;5111354;28;20471;-78
2021/10/24 03:24:30;;;;;;;16.75;5.00;;;;;;;5.63;100.00;102408.59;5145486;27;20043;-78
2021/10/24 03:26:57;;;;;;;9.77;4.40;;;;;;;5.72;100.00;102413.38;5145846;27;20031;-77
2021/10/24 03:29:23;;;;;;;14.97;4.83;;;;;;;5.72;100.00;102413.38;5111303;28;20669;-77
2021/10/24 03:31:48;;;;;;;17.10;4.83;;;;;;;5.68;100.00;102411.81;5111268;28;20092;-78
2021/10/24 03:34:14;;;;;;;10.93;4.68;;;;;;;5.69;100.00;102407.41;5128166;27;20285;-78
2021/10/24 03:36:40;;;;;;;11.20;4.10;;;;;;;5.71;100.00;102410.78;5111263;28;20411;-77
2021/10/24 03:39:05;;;;;;;9.63;4.43;;;;;;;5.72;100.00;102415.16;5094228;28;20031;-77
2021/10/24 03:41:32;;;;;;;13.88;5.03;;;;;;;5.81;99.99;102414.63;5128049;27;20049;-77
2021/10/24 03:43:58;;;;;;;12.83;4.60;;;;;;;5.78;99.93;102406.84;5144947;27;20106;-78
2021/10/24 03:46:23;;;;;;;11.60;4.10;;;;;;;5.87;99.39;102408.94;5127910;27;20837;-77
2021/10/24 03:48:49;;;;;;;11.60;4.93;;;;;;;5.86;99.40;102398.44;5093976;28;20036;-78
2021/10/24 03:51:14;;;;;;;14.40;4.17;;;;;;;5.91;99.09;102407.81;5109664;28;20031;-78
2021/10/24 03:53:40;;;;;;;9.05;3.83;;;;;;;5.87;98.98;102406.28;5143772;27;20036;-77
2021/10/24 03:56:05;;;;;;;17.33;4.30;;;;;;;5.88;98.81;102401.88;5109361;28;20028;-77
2021/10/24 03:58:38;;;;;;;9.20;3.40;;;;;;;5.96;98.60;102409.38;5093904;28;20036;-77
2021/10/24 04:01:03;;;;;;;15.75;4.15;;;;;;;5.91;98.29;102397.22;5109538;28;20125;-77
2021/10/24 04:03:32;;;;;;;10.70;3.83;;;;;;;6.05;98.00;102414.13;5109096;28;20020;-78
2021/10/24 04:05:58;;;;;;;;;;;;;;;6.09;97.95;102413.88;5109980;28;20035;-77
2021/10/24 04:08:24;;;;;;;12.73;3.47;;;;;;;6.09;97.59;102405.06;5126002;27;19916;-77
2021/10/24 04:10:51;;;;;;;14.25;4.35;;;;;;;6.13;97.29;102403.91;5109446;28;20031;-77
2021/10/24 04:13:17;;;;;;;11.95;3.00;;;;;;;6.09;96.93;102405.06;5109181;28;20028;-77
2021/10/24 04:15:42;;;;;;;9.20;4.00;;;;;;;6.13;96.81;102409.22;5109515;28;20183;-78
2021/10/24 04:18:34;;;;;;;12.75;3.65;;;;;;;6.17;96.73;102416.03;5110387;28;20078;-78
2021/10/24 04:21:00;;;;;;;10.60;2.90;;;;;;;6.22;95.99;102411.31;5092589;28;20464;-77
2021/10/24 04:23:25;;;;;;;10.45;3.05;;;;;;;6.23;95.35;102405.06;5109046;28;20110;-77
2021/10/24 04:25:51;;;;;;;7.45;3.45;;;;;;;6.17;95.31;102401.94;5126411;27;20028;-77
2021/10/24 04:28:17;;;;;;;12.33;3.50;;;;;;;6.16;95.58;102409.03;5126418;27;20047;-77
2021/10/24 04:30:44;;;;;;;9.65;2.40;;;;;;;6.17;95.29;102408.09;5109276;28;20278;-77
2021/10/24 04:33:09;;;;;;;10.48;3.72;;;;;;;6.12;95.36;102399.56;5109166;28;20032;-77
2021/10/24 04:35:35;;;;;;;12.82;2.72;;;;;;;6.15;95.45;102402.03;5125954;28;20031;-78
2021/10/24 04:38:01;;;;;;;11.77;3.75;;;;;;;6.12;95.07;102389.81;5092236;28;20737;-77
2021/10/24 04:40:27;;;;;;;12.15;3.13;;;;;;;6.04;95.26;102380.59;5109271;28;20413;-77
2021/10/24 04:43:01;;;;;;;16.48;3.10;;;;;;;6.13;94.99;102385.34;5127617;27;20043;-77
2021/10/24 04:45:27;;;;;;;8.18;2.45;;;;;;;6.21;94.51;102393.69;5107657;28;20040;-78
2021/10/24 04:47:53;;;;;;;8.65;3.05;;;;;;;6.17;94.61;102386.88;5107445;28;20035;-77
2021/10/24 04:50:18;;;;;;;;;;;;;;;6.22;94.19;102390.09;5079532;27;1777669;-77
2021/10/24 04:52:44;;;;;;;12.50;2.83;;;;;;;6.18;94.10;102388.59;5108456;28;20026;-77
2021/10/24 04:55:11;;;;;;;10.98;2.42;;;;;;;6.16;93.89;102379.88;5107673;28;20067;-78
2021/10/24 04:57:36;;;;;;;5.20;2.78;;;;;;;6.10;94.03;102380.25;5108264;28;20031;-76
2021/10/24 05:00:07;;;;;;;11.82;2.78;;;;;;;6.19;94.11;102376.19;5108324;28;20357;-77
2021/10/24 05:02:34;;;;;;;10.75;3.53;;;;;;;6.14;94.10;102379.13;5126555;27;20031;-77
2021/10/24 05:05:02;;;;;;;15.68;2.40;;;;;;;6.17;93.98;102381.56;5109370;28;20694;-78
2021/10/24 05:07:27;;;;;;;10.40;3.17;;;;;;;6.16;94.04;102382.53;5109470;28;20027;-77
2021/10/24 05:09:53;;;;;;;9.82;3.42;;;;;;;6.21;93.92;102391.06;5092806;28;20810;-78
2021/10/24 05:12:19;;;;;;;15.77;5.28;;;;;;;6.22;93.78;102382.13;5109397;28;20027;-78
2021/10/24 05:14:45;;;;;;;13.47;2.93;;;;;;;6.12;93.76;102375.69;5109320;28;20040;-78
2021/10/24 05:17:11;;;;;;;14.40;3.28;;;;;;;6.10;93.70;102385.53;5110658;28;20746;-78
2021/10/24 05:19:37;;;;;;;10.87;2.87;;;;;;;6.13;93.58;102378.25;5125645;27;20077;-77
2021/10/24 05:22:02;;;;;;;7.93;3.08;;;;;;;6.08;93.76;102376.81;5126387;27;20031;-77
2021/10/24 05:24:28;;;;;;;6.75;2.22;;;;;;;6.03;93.75;102381.56;5109179;28;20031;-77
2021/10/24 05:26:54;;;;;;;9.82;3.50;;;;;;;5.98;94.13;102381.84;5109197;28;20380;-77
2021/10/24 05:29:21;;;;;;;10.35;2.85;;;;;;;5.93;94.28;102373.28;5143703;27;20062;-77
2021/10/24 05:31:46;;;;;;;9.35;2.95;;;;;;;5.85;94.62;102379.06;5126126;27;20464;-78
2021/10/24 05:34:17;;;;;;;8.90;2.42;;;;;;;5.78;94.79;102375.03;5108824;28;20122;-77
2021/10/24 05:36:53;;;;;;;10.95;2.83;;;;;;;5.72;95.16;102380.72;5109281;28;20038;-77
2021/10/24 05:39:20;;;;;;;16.90;3.33;;;;;;;5.69;95.44;102386.22;5110000;28;20092;-77
2021/10/24 05:41:46;;;;;;;6.50;3.03;;;;;;;5.68;95.49;102381.84;5109021;28;20036;-77
2021/10/24 05:44:14;;;;;;;12.95;3.22;;;;;;;5.69;95.42;102375.59;5108945;28;20031;-78
2021/10/24 05:46:41;;;;;;;22.60;3.80;;;;;;;5.64;95.44;102377.66;5125793;27;20118;-77
2021/10/24 05:49:11;;;;;;;9.13;2.50;;;;;;;5.66;95.27;102381.06;5108866;28;20027;-78
2021/10/24 05:51:42;;;;;;;7.13;2.30;;;;;;;5.54;95.48;102365.91;5126710;27;20031;-77
2021/10/24 05:54:08;;;;;;;14.32;2.80;;;;;;;5.44;95.42;102361.13;5091220;28;20087;-77
2021/10/24 05:56:38;;;;;;;9.70;3.60;;;;;;;5.43;95.55;102354.16;5109122;28;20392;-77
2021/10/24 05:59:05;;;;;;;15.85;4.85;;;;;;;5.42;95.66;102368.31;5143085;27;20036;-77
2021/10/24 06:01:39;;;;;;;6.78;2.65;;;;;;;5.30;95.59;102358.44;5092944;28;20051;-77
2021/10/24 06:04:23;;;;;;;14.43;2.97;;;;;;;5.37;95.75;102370.38;5138084;27;20100;-78
2021/10/24 06:07:18;;;;;;;11.30;2.78;;;;;;;5.30;95.49;102363.75;5121935;27;20028;-77
2021/10/24 06:09:51;;;;;;;7.53;2.67;;;;;;;5.14;95.84;102354.97;5142792;27;20043;-77
2021/10/24 06:15:16;;;;;;;14.40;3.78;;;;;;;5.20;96.17;102371.38;5142726;27;20480;-77
2021/10/24 06:17:43;;;;;;;12.73;3.45;;;;;;;5.09;96.15;102352.59;5109676;28;20114;-77
2021/10/24 06:20:11;;;;;;;13.27;3.05;;;;;;;5.12;96.13;102360.34;5108589;28;20035;-77
2021/10/24 06:22:37;;;;;;;9.65;3.05;;;;;;;5.18;95.96;102369.75;5108586;28;20444;-77
2021/10/24 06:25:07;;;;;;;8.10;3.05;;;;;;;5.18;95.91;102365.31;5108273;28;20383;-77
2021/10/24 06:27:37;;;;;;;10.50;2.90;;;;;;;5.20;95.65;102367.88;5108502;28;20028;-77
2021/10/24 06:30:05;;;;;;;14.82;3.33;;;;;;;5.14;95.43;102365.56;5142893;27;20051;-77
2021/10/24 06:32:50;;;;;;;7.63;3.13;;;;;;;5.06;95.63;102364.19;5109528;28;20062;-76
2021/10/24 06:35:35;;;;;;;12.38;3.83;;;;;;;5.13;95.90;102374.44;5109167;28;20415;-77
2021/10/24 06:38:20;;;;;;;17.10;3.30;;;;;;;5.11;95.84;102376.34;5109167;28;20459;-77
2021/10/24 06:40:48;;;;;;;12.38;2.97;;;;;;;5.19;95.58;102374.09;5124642;27;20040;-78
2021/10/24 06:43:14;;;;;;;11.10;3.70;;;;;;;5.19;95.38;102380.22;5125078;27;20812;-77
2021/10/24 06:45:58;;;;;;;12.05;3.00;;;;;;;5.25;94.96;102379.88;5108951;28;20472;-77
2021/10/24 06:48:49;;;;;;;8.23;2.83;;;;;;;5.28;94.42;102373.56;5103293;27;20058;-77
2021/10/24 06:51:35;;;;;;;10.38;3.13;;;;;;;5.34;94.27;102367.94;5097844;28;20074;-78
2021/10/24 06:54:20;;;;;;;16.58;3.42;;;;;;;5.36;93.92;102365.16;5108357;28;20099;-78
2021/10/24 06:57:03;;;;;;;14.30;5.00;;;;;;;5.28;93.97;102365.63;5140525;27;20050;-77
2021/10/24 06:59:48;;;;;;;14.35;3.60;;;;;;;5.27;94.15;102371.88;5128572;27;20058;-78
2021/10/24 07:02:40;;;;;;;10.60;3.05;;;;;;;5.11;94.73;102373.69;5129467;28;20074;-79
2021/10/24 07:05:25;;;;;;;16.15;3.55;;;;;;;5.23;94.31;102383.56;5129663;28;20475;-79
2021/10/24 07:07:58;;;;;;;11.00;3.60;;;;;;;5.21;94.33;102372.22;5129050;28;20050;-78
2021/10/24 07:10:24;;;;;;;7.93;3.20;;;;;;;5.22;93.95;102369.47;5128732;28;20027;-79
2021/10/24 07:12:52;;;;;;;9.83;2.73;;;;;;;5.29;93.87;102384.09;5128590;28;20045;-80
2021/10/24 07:15:22;;;;;;;9.23;3.72;;;;;;;5.48;93.71;102383.88;5128359;28;20023;-79
2021/10/24 07:17:51;;;;;;;14.20;3.75;;;;;;;5.59;93.24;102398.28;5119211;28;20027;-80
2021/10/24 07:20:17;;;;;;;20.98;5.60;;;;;;;5.73;92.69;102398.31;5125206;28;20155;-79
2021/10/24 07:22:51;;;;;;;16.75;3.95;;;;;;;5.83;91.79;102386.25;5092349;28;20035;-80
2021/10/24 07:25:35;;;;;;;9.50;3.58;;;;;;;5.60;91.72;102371.69;5124556;27;20507;-80
2021/10/24 07:28:01;;;;;;;13.70;3.40;;;;;;;5.70;92.07;102378.16;5111743;28;20035;-80
2021/10/24 07:30:26;;;;;;;12.97;3.57;;;;;;;5.75;91.26;102372.56;5129003;28;20359;-80
2021/10/24 07:32:55;;;;;;;12.40;4.22;;;;;;;5.75;90.81;102366.44;5129056;28;20477;-80
2021/10/24 07:35:24;;;;;;;10.38;4.25;;;;;;;6.45;90.51;102406.41;5129232;28;20027;-79
2021/10/24 07:37:50;;;;;;;15.57;3.97;;;;;;;6.64;88.13;102375.09;5123066;28;20035;-80
2021/10/24 07:40:18;;;;;;;10.25;3.60;;;;;;;7.21;87.51;102399.81;5128825;27;20039;-81
2021/10/24 07:42:44;;;;;;;9.90;3.38;;;;;;;7.67;84.63;102391.44;5129389;27;20035;-79
2021/10/24 07:45:10;;;;;;;11.32;3.92;;;;;;;8.19;82.13;102387.88;5133459;27;20056;-79
2021/10/24 07:47:36;;;;;;;16.35;3.75;;;;;;;8.00;79.82;102346.59;5115337;27;20088;-79
2021/10/24 07:50:04;;;;;;;9.50;3.50;;;;;;;8.01;79.38;102337.66;5131814;27;20023;-80
2021/10/24 07:52:35;;;;;;;14.10;3.58;;;;;;;8.75;78.86;102382.19;5128566;27;20049;-79
2021/10/24 07:55:13;;;;;;;10.90;3.63;;;;;;;9.15;77.70;102384.59;5112292;27;20031;-80
2021/10/24 07:57:40;;;;;;;15.88;4.35;;;;;;;9.92;74.32;102382.34;5111662;27;20483;-80
2021/10/24 08:00:06;;;;;;;8.27;3.60;;;;;;;10.01;72.60;102351.44;5111858;27;20027;-80
2021/10/24 08:02:39;;;;;;;10.82;3.30;;;;;;;8.68;74.98;102327.69;5129888;27;20523;-79
2021/10/24 08:05:08;;;;;;;10.35;3.10;;;;;;;9.03;75.31;102346.41;5129012;27;20367;-80
2021/10/24 08:07:39;;;;;;;6.30;2.78;;;;;;;9.17;74.15;102338.22;5113357;27;20031;-80
2021/10/24 08:10:08;;;;;;;13.40;4.20;;;;;;;9.46;73.46;102341.38;5129947;27;20409;-80
2021/10/24 08:12:35;;;;;;;15.05;3.05;;;;;;;9.99;71.69;102351.53;5112885;27;20023;-80
2021/10/24 08:15:01;;;;;;;;;;;;;;;10.67;70.01;102376.44;5112990;27;20360;-80
2021/10/24 08:17:27;;;;;;;;;;;;;;;10.34;69.35;102318.59;5113632;27;19911;-80
2021/10/24 08:20:13;;;;;;;10.82;2.80;;;;;;;10.08;69.89;102310.78;5129937;27;19919;-80
2021/10/24 08:22:39;;;;;;;11.23;2.97;;;;;;;10.00;71.24;102337.25;5112902;27;20487;-80
2021/10/24 08:25:04;;;;;;;8.03;4.00;;;;;;;9.89;70.25;102307.88;5129654;27;20056;-80
2021/10/24 08:27:32;;;;;;;10.88;3.45;;;;;;;9.90;70.59;102315.78;5112832;27;20027;-80
2021/10/24 08:30:18;;;;;;;6.90;3.60;;;;;;;10.15;70.83;102336.03;5129249;27;20122;-80
2021/10/24 08:32:48;;;;;;;7.70;3.28;;;;;;;10.95;68.76;102332.31;5113294;27;20039;-81
2021/10/24 08:35:14;;;;;;;8.55;3.45;;;;;;;12.28;65.89;102350.56;5112305;27;20444;-81
2021/10/24 08:37:40;;;;;;;5.57;2.75;;;;;;;12.44;63.34;102303.53;5112395;27;20573;-80
2021/10/24 08:40:07;;;;;;;12.73;3.10;;;;;;;12.06;62.26;102266.78;5112491;27;20039;-81
2021/10/24 08:42:38;;;;;;;10.73;4.22;;;;;;;11.53;63.70;102248.19;5112789;27;20157;-80
2021/10/24 08:45:04;;;;;;;11.43;4.88;;;;;;;11.98;63.17;102272.78;5129310;27;20046;-80
2021/10/24 08:47:30;;;;;;;14.10;3.90;;;;;;;12.21;63.50;102302.06;5129400;27;20098;-80
2021/10/24 08:49:55;;;;;;;10.00;4.22;;;;;;;12.49;61.94;102294.25;5129367;27;20039;-80
2021/10/24 08:52:23;;;;;;;9.50;2.92;;;;;;;13.13;60.81;102304.47;5112196;27;20115;-80
2021/10/24 08:54:50;;;;;;;9.15;2.90;;;;;;;12.08;62.85;102266.63;5128329;27;20072;-80
2021/10/24 08:57:24;;;;;;;11.95;3.17;;;;;;;12.74;61.00;102260.75;5112084;27;20070;-81
2021/10/24 08:59:50;;;;;;;8.77;3.53;;;;;;;12.99;59.62;102244.06;5111962;27;20031;-81
2021/10/24 09:02:15;;;;;;;8.82;3.47;;;;;;;12.56;61.41;102256.06;5129174;27;20041;-81
2021/10/24 09:04:54;;;;;;;12.82;2.95;;;;;;;12.66;62.81;102282.84;5112116;27;20035;-81
2021/10/24 09:07:21;;;;;;;9.30;2.50;;;;;;;12.02;62.55;102243.94;5129955;27;20030;-81
2021/10/24 09:09:46;;;;;;;;;;;;;;;11.87;62.74;102235.44;5112477;27;20027;-80
2021/10/24 09:12:15;;;;;;;5.30;3.00;;;;;;;11.96;62.65;102233.75;5130068;27;19911;-81
2021/10/24 09:14:48;;;;;;;4.88;2.95;;;;;;;11.78;63.07;102218.31;5128717;27;20031;-81
2021/10/24 09:17:20;;;;;;;11.00;3.00;;;;;;;11.25;64.88;102234.50;5129021;27;20133;-79
2021/10/24 09:19:49;;;;;;;12.73;3.45;;;;;;;11.44;63.93;102214.22;5129615;27;20035;-80
2021/10/24 09:22:28;;;;;;;11.02;2.80;;;;;;;12.03;62.78;102224.19;5128900;27;20023;-80
2021/10/24 09:25:13;;;;;;;8.07;3.10;;;;;;;11.91;64.52;102247.53;5128809;27;20031;-81
2021/10/24 09:27:44;;;;;;;10.23;2.97;;;;;;;12.21;63.76;102261.91;5128703;27;20031;-80
2021/10/24 09:30:34;;;;;;;7.05;2.78;;;;;;;12.57;62.79;102247.03;5129791;27;20034;-80
2021/10/24 09:33:09;;;;;;;10.55;3.22;;;;;;;12.66;63.00;102246.19;5101631;27;20137;-80
2021/10/24 09:35:37;;;;;;;8.43;2.80;;;;;;;12.37;63.36;102226.56;5129380;27;20042;-81
2021/10/24 09:38:20;;;;;;;7.07;2.80;;;;;;;12.38;64.25;102241.63;5129717;27;20041;-81
2021/10/24 09:40:58;;;;;;;12.95;4.38;;;;;;;12.16;63.78;102208.75;5128461;27;20118;-80
2021/10/24 09:43:28;;;;;;;16.38;4.50;;;;;;;11.44;63.94;102164.25;5111607;27;20096;-81
2021/10/24 09:45:57;;;;;;;7.35;2.78;;;;;;;11.92;65.18;102238.56;5111275;27;20070;-80
2021/10/24 09:48:27;;;;;;;14.40;4.32;;;;;;;11.20;65.50;102189.44;5129261;27;20034;-80
2021/10/24 09:50:55;;;;;;;7.80;3.15;;;;;;;12.20;64.33;102231.59;5111087;27;20027;-80
2021/10/24 09:53:26;;;;;;;12.63;3.65;;;;;;;11.94;65.03;102220.53;5110695;27;20023;-80
2021/10/24 09:55:54;;;;;;;10.70;3.20;;;;;;;11.98;65.59;102239.81;5110657;27;20072;-81
2021/10/24 09:58:21;;;;;;;10.23;3.00;;;;;;;12.01;64.47;102202.06;5128251;27;20466;-80
2021/10/24 10:00:47;;;;;;;7.10;3.20;;;;;;;12.15;64.78;102223.13;5129168;27;20039;-81
2021/10/24 10:03:15;;;;;;;9.45;3.00;;;;;;;12.43;62.97;102207.25;5127933;27;20035;-81
2021/10/24 10:05:41;;;;;;;9.38;3.67;;;;;;;12.95;62.27;102226.59;5127592;27;20023;-81
2021/10/24 10:08:07;;;;;;;;;;;;;;;12.11;63.77;102184.22;5128413;27;20126;-80
2021/10/24 10:10:39;;;;;;;9.70;3.60;;;;;;;12.59;63.79;102223.63;5127618;27;20167;-81
2021/10/24 10:13:10;;;;;;;10.20;3.42;;;;;;;12.71;62.92;102196.69;5110682;27;20030;-80
2021/10/24 10:15:47;;;;;;;6.57;3.20;;;;;;;13.17;61.98;102219.25;5110699;27;20036;-80
2021/10/24 10:18:13;;;;;;;8.13;3.20;;;;;;;12.50;63.72;102178.06;5127635;27;20031;-80
2021/10/24 10:20:53;;;;;;;8.00;3.35;;;;;;;12.42;64.29;102186.81;5110709;27;20486;-80
2021/10/24 10:23:36;;;;;;;9.48;3.50;;;;;;;13.51;61.76;102215.09;5127572;27;20035;-80
2021/10/24 10:26:41;;;;;;;10.30;3.22;;;;;;;13.31;61.90;102183.94;5127562;27;20035;-80
2021/10/24 10:29:09;;;;;;;11.53;2.93;;;;;;;12.12;63.51;102118.97;5127777;27;20046;-80
2021/10/24 10:31:36;;;;;;;9.23;3.08;;;;;;;12.20;65.00;102177.22;5110598;27;20433;-80
2021/10/24 10:34:05;;;;;;;9.35;4.28;;;;;;;12.42;64.11;102176.94;5110608;27;20039;-81
2021/10/24 10:36:47;;;;;;;9.68;3.72;;;;;;;13.24;62.42;102193.53;5127568;27;20026;-80
2021/10/24 10:39:31;;;;;;;8.43;3.55;;;;;;;13.49;62.11;102200.97;5110503;28;20036;-80
2021/10/24 10:42:20;;;;;;;12.43;3.00;;;;;;;13.41;60.15;102119.53;5128157;27;20035;-80
2021/10/24 10:45:14;;;;;;;6.35;3.03;;;;;;;12.71;62.75;102135.06;5126817;27;20117;-81
2021/10/24 10:47:59;;;;;;;7.90;3.15;;;;;;;12.03;64.38;102118.00;5128564;27;20099;-81
2021/10/24 10:50:27;;;;;;;11.82;3.80;;;;;;;12.45;63.61;102159.75;5127559;28;20027;-81
2021/10/24 10:52:53;;;;;;;9.80;2.92;;;;;;;11.61;65.36;102119.97;5110629;28;20055;-81
2021/10/24 10:55:19;;;;;;;5.85;3.00;;;;;;;12.74;63.24;102175.00;5127856;27;20525;-81
2021/10/24 10:57:45;;;;;;;6.75;3.05;;;;;;;13.33;61.28;102160.50;5110413;28;20134;-81
2021/10/24 11:00:36;;;;;;;11.88;3.83;;;;;;;12.98;61.07;102151.25;5127644;27;20031;-81
2021/10/24 11:03:03;;;;;;;8.25;3.30;;;;;;;13.02;60.35;102139.25;5127352;27;20092;-81
2021/10/24 11:05:38;;;;;;;13.82;3.08;;;;;;;13.92;58.07;102124.34;5127584;28;20050;-81
2021/10/24 11:08:04;;;;;;;5.80;2.75;;;;;;;13.83;58.32;102127.94;5128745;27;20038;-81
2021/10/24 11:10:47;;;;;;;6.82;3.20;;;;;;;13.52;57.86;102069.22;5127464;28;20031;-80
2021/10/24 11:13:31;;;;;;;7.78;2.75;;;;;;;13.56;58.56;102101.13;5128406;28;20026;-82
2021/10/24 11:16:32;;;;;;;9.23;3.22;;;;;;;13.98;58.06;102128.28;5110667;28;20381;-82
2021/10/24 11:18:58;;;;;;;6.45;2.45;;;;;;;13.15;58.04;102038.88;5130595;27;20070;-82
2021/10/24 11:21:27;;;;;;;5.05;2.28;;;;;;;13.20;59.25;102076.81;5131724;27;20446;-82
2021/10/24 11:23:57;;;;;;;4.93;2.40;;;;;;;13.54;57.99;102076.28;5131304;27;20031;-81
2021/10/24 11:26:23;;;;;;;7.20;2.75;;;;;;;13.65;57.14;102078.72;5132580;27;20043;-82
2021/10/24 11:28:49;;;;;;;5.78;2.60;;;;;;;13.46;57.70;102061.78;5114241;27;20074;-81
2021/10/24 11:31:19;;;;;;;5.35;2.22;;;;;;;12.74;57.17;102015.03;5131163;27;20112;-81
2021/10/24 11:33:49;;;;;;;8.20;2.30;;;;;;;12.68;58.79;102051.28;5132015;27;20513;-81
2021/10/24 11:36:21;;;;;;;6.70;2.40;;;;;;;13.24;57.82;102054.91;5114301;27;20027;-82
2021/10/24 11:38:46;;;;;;;8.93;2.55;;;;;;;13.81;56.13;102065.50;5131971;27;20046;-81